sensor_id;sensor_type;location;lat;lon;timestamp;pressure;altitude;pressure_sealevel;temperature;humidity
83836;BME280;73859;40.830;43.828;2024-01-07T00:01:47;84670.69;;;-2.95;55.72
83836;BME280;73859;40.830;43.828;2024-01-07T00:04:16;84677.31;;;-2.89;56.08
83836;BME280;73859;40.830;43.828;2024-01-07T00:06:43;84581.50;;;-3.61;55.60
83836;BME280;73859;40.830;43.828;2024-01-07T00:09:11;84671.44;;;-2.86;55.86
83836;BME280;73859;40.830;43.828;2024-01-07T00:11:41;84663.56;;;-2.88;55.83
83836;BME280;73859;40.830;43.828;2024-01-07T00:14:09;84673.38;;;-2.90;55.96
83836;BME280;73859;40.830;43.828;2024-01-07T00:16:36;84680.69;;;-2.92;55.50
83836;BME280;73859;40.830;43.828;2024-01-07T00:19:04;84669.66;;;-2.98;55.81
83836;BME280;73859;40.830;43.828;2024-01-07T00:21:31;84668.53;;;-3.06;56.04
83836;BME280;73859;40.830;43.828;2024-01-07T00:23:59;84670.16;;;-3.12;56.18
83836;BME280;73859;40.830;43.828;2024-01-07T00:26:26;84665.22;;;-3.16;56.37
83836;BME280;73859;40.830;43.828;2024-01-07T00:28:54;84666.19;;;-3.13;55.95
83836;BME280;73859;40.830;43.828;2024-01-07T00:31:21;84668.22;;;-3.08;56.11
83836;BME280;73859;40.830;43.828;2024-01-07T00:33:49;84664.44;;;-3.04;55.37
83836;BME280;73859;40.830;43.828;2024-01-07T00:36:18;84669.19;;;-3.06;55.70
83836;BME280;73859;40.830;43.828;2024-01-07T00:38:45;84667.94;;;-3.10;55.66
83836;BME280;73859;40.830;43.828;2024-01-07T00:41:13;84673.09;;;-3.14;55.81
83836;BME280;73859;40.830;43.828;2024-01-07T00:43:40;84666.31;;;-3.17;55.99
83836;BME280;73859;40.830;43.828;2024-01-07T00:46:08;84671.38;;;-3.17;56.35
83836;BME280;73859;40.830;43.828;2024-01-07T00:48:35;84663.91;;;-3.20;56.09
83836;BME280;73859;40.830;43.828;2024-01-07T00:51:04;84666.03;;;-3.19;55.75
83836;BME280;73859;40.830;43.828;2024-01-07T00:53:31;84656.78;;;-3.13;56.02
83836;BME280;73859;40.830;43.828;2024-01-07T00:55:59;84646.97;;;-3.11;56.04
83836;BME280;73859;40.830;43.828;2024-01-07T00:58:26;84648.28;;;-3.06;55.91
83836;BME280;73859;40.830;43.828;2024-01-07T01:00:53;84641.09;;;-3.08;56.07
83836;BME280;73859;40.830;43.828;2024-01-07T01:03:21;84640.38;;;-3.08;55.69
83836;BME280;73859;40.830;43.828;2024-01-07T01:05:49;84632.41;;;-3.07;56.40
83836;BME280;73859;40.830;43.828;2024-01-07T01:08:17;84551.81;;;-3.70;56.43
83836;BME280;73859;40.830;43.828;2024-01-07T01:10:44;84623.56;;;-3.24;56.37
83836;BME280;73859;40.830;43.828;2024-01-07T01:13:12;84607.50;;;-3.39;55.51
83836;BME280;73859;40.830;43.828;2024-01-07T01:15:39;84644.03;;;-3.09;55.83
83836;BME280;73859;40.830;43.828;2024-01-07T01:18:07;84643.38;;;-3.01;55.30
83836;BME280;73859;40.830;43.828;2024-01-07T01:20:35;84642.28;;;-3.00;55.19
83836;BME280;73859;40.830;43.828;2024-01-07T01:23:02;84648.44;;;-3.01;54.76
83836;BME280;73859;40.830;43.828;2024-01-07T01:25:30;84647.31;;;-3.00;55.37
83836;BME280;73859;40.830;43.828;2024-01-07T01:27:57;84648.72;;;-2.99;54.94
83836;BME280;73859;40.830;43.828;2024-01-07T01:30:25;84655.56;;;-3.08;55.16
83836;BME280;73859;40.830;43.828;2024-01-07T01:32:55;84654.84;;;-3.09;55.29
83836;BME280;73859;40.830;43.828;2024-01-07T01:35:22;84588.25;;;-3.58;55.16
83836;BME280;73859;40.830;43.828;2024-01-07T01:37:50;84642.28;;;-3.21;55.49
83836;BME280;73859;40.830;43.828;2024-01-07T01:40:17;84643.00;;;-3.21;55.69
83836;BME280;73859;40.830;43.828;2024-01-07T01:42:45;84659.44;;;-3.16;55.34
83836;BME280;73859;40.830;43.828;2024-01-07T01:45:14;84562.69;;;-3.82;55.35
83836;BME280;73859;40.830;43.828;2024-01-07T01:47:42;84647.16;;;-3.05;55.07
83836;BME280;73859;40.830;43.828;2024-01-07T01:50:11;84651.81;;;-3.04;54.89
83836;BME280;73859;40.830;43.828;2024-01-07T01:52:39;84657.72;;;-2.98;54.81
83836;BME280;73859;40.830;43.828;2024-01-07T01:55:07;84656.63;;;-2.97;55.03
83836;BME280;73859;40.830;43.828;2024-01-07T01:57:36;84651.13;;;-2.95;55.29
83836;BME280;73859;40.830;43.828;2024-01-07T02:00:07;84534.41;;;-3.68;55.57
83836;BME280;73859;40.830;43.828;2024-01-07T02:02:35;84636.31;;;-3.06;55.67
83836;BME280;73859;40.830;43.828;2024-01-07T02:05:03;84640.84;;;-3.01;55.33
83836;BME280;73859;40.830;43.828;2024-01-07T02:07:31;84546.47;;;-3.72;54.89
83836;BME280;73859;40.830;43.828;2024-01-07T02:09:59;84647.84;;;-3.05;55.32
83836;BME280;73859;40.830;43.828;2024-01-07T02:12:27;84638.28;;;-3.10;55.38
83836;BME280;73859;40.830;43.828;2024-01-07T02:14:54;84638.16;;;-3.06;55.11
83836;BME280;73859;40.830;43.828;2024-01-07T02:17:22;84635.78;;;-3.01;55.73
83836;BME280;73859;40.830;43.828;2024-01-07T02:19:49;84635.53;;;-2.93;55.57
83836;BME280;73859;40.830;43.828;2024-01-07T02:22:17;84624.59;;;-2.90;55.47
83836;BME280;73859;40.830;43.828;2024-01-07T02:24:46;84636.13;;;-2.89;56.24
83836;BME280;73859;40.830;43.828;2024-01-07T02:27:13;84637.63;;;-3.01;55.40
83836;BME280;73859;40.830;43.828;2024-01-07T02:29:41;84646.53;;;-3.18;55.48
83836;BME280;73859;40.830;43.828;2024-01-07T02:32:08;84655.22;;;-3.41;54.88
83836;BME280;73859;40.830;43.828;2024-01-07T02:34:36;84644.91;;;-3.68;55.35
83836;BME280;73859;40.830;43.828;2024-01-07T02:37:03;84655.41;;;-4.04;55.33
83836;BME280;73859;40.830;43.828;2024-01-07T02:39:31;84663.75;;;-4.29;55.72
83836;BME280;73859;40.830;43.828;2024-01-07T02:41:58;84652.84;;;-4.51;56.45
83836;BME280;73859;40.830;43.828;2024-01-07T02:44:26;84659.53;;;-4.57;57.17
83836;BME280;73859;40.830;43.828;2024-01-07T02:46:53;84658.00;;;-4.55;57.53
83836;BME280;73859;40.830;43.828;2024-01-07T02:49:21;84659.53;;;-4.44;57.85
83836;BME280;73859;40.830;43.828;2024-01-07T02:51:48;84654.78;;;-4.30;58.12
83836;BME280;73859;40.830;43.828;2024-01-07T02:54:17;84646.88;;;-4.19;57.92
83836;BME280;73859;40.830;43.828;2024-01-07T02:56:44;84650.97;;;-4.00;58.01
83836;BME280;73859;40.830;43.828;2024-01-07T02:59:12;84669.56;;;-3.94;58.52
83836;BME280;73859;40.830;43.828;2024-01-07T03:01:39;84666.44;;;-3.98;57.33
83836;BME280;73859;40.830;43.828;2024-01-07T03:04:09;84674.81;;;-4.01;58.56
83836;BME280;73859;40.830;43.828;2024-01-07T03:06:37;84670.56;;;-4.04;57.65
83836;BME280;73859;40.830;43.828;2024-01-07T03:09:05;84677.34;;;-4.01;58.13
83836;BME280;73859;40.830;43.828;2024-01-07T03:11:32;84675.13;;;-3.99;58.32
83836;BME280;73859;40.830;43.828;2024-01-07T03:13:59;84584.75;;;-4.64;58.45
83836;BME280;73859;40.830;43.828;2024-01-07T03:16:27;84674.72;;;-3.98;58.28
83836;BME280;73859;40.830;43.828;2024-01-07T03:18:54;84660.56;;;-4.08;58.06
83836;BME280;73859;40.830;43.828;2024-01-07T03:21:23;84667.25;;;-4.01;58.25
83836;BME280;73859;40.830;43.828;2024-01-07T03:23:51;84658.97;;;-4.14;58.90
83836;BME280;73859;40.830;43.828;2024-01-07T03:26:19;84569.13;;;-4.71;58.19
83836;BME280;73859;40.830;43.828;2024-01-07T03:28:47;84651.72;;;-4.12;58.64
83836;BME280;73859;40.830;43.828;2024-01-07T03:31:15;84659.09;;;-4.18;58.30
83836;BME280;73859;40.830;43.828;2024-01-07T03:33:43;84658.38;;;-4.18;58.94
83836;BME280;73859;40.830;43.828;2024-01-07T03:36:13;84650.50;;;-4.20;58.78
83836;BME280;73859;40.830;43.828;2024-01-07T03:38:40;84548.03;;;-4.90;58.58
83836;BME280;73859;40.830;43.828;2024-01-07T03:41:08;84645.63;;;-4.15;58.54
83836;BME280;73859;40.830;43.828;2024-01-07T03:43:35;84653.00;;;-4.08;59.07
83836;BME280;73859;40.830;43.828;2024-01-07T03:46:03;84531.00;;;-4.99;58.83
83836;BME280;73859;40.830;43.828;2024-01-07T03:48:30;84666.81;;;-4.00;58.70
83836;BME280;73859;40.830;43.828;2024-01-07T03:50:58;84662.69;;;-3.93;58.70
83836;BME280;73859;40.830;43.828;2024-01-07T03:53:25;84665.38;;;-3.88;58.63
83836;BME280;73859;40.830;43.828;2024-01-07T03:55:53;84661.94;;;-3.81;58.19
83836;BME280;73859;40.830;43.828;2024-01-07T03:58:20;84654.47;;;-3.85;58.28
83836;BME280;73859;40.830;43.828;2024-01-07T04:00:48;84663.75;;;-3.82;58.23
83836;BME280;73859;40.830;43.828;2024-01-07T04:03:15;84659.28;;;-3.78;58.94
83836;BME280;73859;40.830;43.828;2024-01-07T04:05:46;84577.53;;;-4.40;58.05
83836;BME280;73859;40.830;43.828;2024-01-07T04:08:13;84676.47;;;-3.73;58.60
83836;BME280;73859;40.830;43.828;2024-01-07T04:10:42;84627.06;;;-4.08;58.06
83836;BME280;73859;40.830;43.828;2024-01-07T04:13:10;84672.13;;;-3.72;57.80
83836;BME280;73859;40.830;43.828;2024-01-07T04:15:37;84677.94;;;-3.63;57.68
83836;BME280;73859;40.830;43.828;2024-01-07T04:18:05;84669.47;;;-3.69;57.66
83836;BME280;73859;40.830;43.828;2024-01-07T04:20:32;84669.63;;;-3.85;57.60
83836;BME280;73859;40.830;43.828;2024-01-07T04:23:00;84602.06;;;-4.40;57.76
83836;BME280;73859;40.830;43.828;2024-01-07T04:25:27;84674.13;;;-4.02;58.00
83836;BME280;73859;40.830;43.828;2024-01-07T04:27:55;84686.81;;;-3.92;58.21
83836;BME280;73859;40.830;43.828;2024-01-07T04:30:22;84686.53;;;-3.94;58.51
83836;BME280;73859;40.830;43.828;2024-01-07T04:32:50;84691.59;;;-3.94;58.24
83836;BME280;73859;40.830;43.828;2024-01-07T04:35:17;84689.34;;;-3.92;58.26
83836;BME280;73859;40.830;43.828;2024-01-07T04:37:45;84708.06;;;-3.90;58.10
83836;BME280;73859;40.830;43.828;2024-01-07T04:40:12;84703.56;;;-3.86;57.80
83836;BME280;73859;40.830;43.828;2024-01-07T04:42:40;84711.88;;;-3.85;57.70
83836;BME280;73859;40.830;43.828;2024-01-07T04:45:07;84644.16;;;-4.25;57.18
83836;BME280;73859;40.830;43.828;2024-01-07T04:47:35;84711.13;;;-3.73;57.80
83836;BME280;73859;40.830;43.828;2024-01-07T04:50:03;84607.72;;;-4.36;57.45
83836;BME280;73859;40.830;43.828;2024-01-07T04:52:31;84704.41;;;-3.55;57.58
83836;BME280;73859;40.830;43.828;2024-01-07T04:54:58;84713.78;;;-3.42;57.97
83836;BME280;73859;40.830;43.828;2024-01-07T04:57:26;84635.59;;;-3.93;57.83
83836;BME280;73859;40.830;43.828;2024-01-07T04:59:54;84697.19;;;-3.43;57.87
83836;BME280;73859;40.830;43.828;2024-01-07T05:02:21;84636.38;;;-3.83;57.69
83836;BME280;73859;40.830;43.828;2024-01-07T05:04:48;84639.16;;;-3.69;57.53
83836;BME280;73859;40.830;43.828;2024-01-07T05:07:16;84718.06;;;-3.18;57.04
83836;BME280;73859;40.830;43.828;2024-01-07T05:09:43;84724.97;;;-3.09;57.05
83836;BME280;73859;40.830;43.828;2024-01-07T05:12:11;84634.94;;;-3.72;57.35
83836;BME280;73859;40.830;43.828;2024-01-07T05:14:38;84745.94;;;-3.09;56.64
83836;BME280;73859;40.830;43.828;2024-01-07T05:17:06;84739.09;;;-3.21;57.03
83836;BME280;73859;40.830;43.828;2024-01-07T05:19:33;84713.13;;;-3.34;57.09
83836;BME280;73859;40.830;43.828;2024-01-07T05:22:01;84726.22;;;-3.14;57.51
83836;BME280;73859;40.830;43.828;2024-01-07T05:24:29;84722.16;;;-3.11;57.21
83836;BME280;73859;40.830;43.828;2024-01-07T05:26:58;84713.81;;;-2.99;57.41
83836;BME280;73859;40.830;43.828;2024-01-07T05:29:26;84737.59;;;-2.75;57.29
83836;BME280;73859;40.830;43.828;2024-01-07T05:31:53;84732.28;;;-2.68;56.69
83836;BME280;73859;40.830;43.828;2024-01-07T05:34:20;84733.22;;;-2.53;56.37
83836;BME280;73859;40.830;43.828;2024-01-07T05:36:48;84714.38;;;-2.52;56.67
83836;BME280;73859;40.830;43.828;2024-01-07T05:39:16;84687.88;;;-2.60;56.19
83836;BME280;73859;40.830;43.828;2024-01-07T05:41:43;84732.09;;;-2.21;56.32
83836;BME280;73859;40.830;43.828;2024-01-07T05:44:11;84649.41;;;-2.76;56.47
83836;BME280;73859;40.830;43.828;2024-01-07T05:46:39;84738.50;;;-1.98;56.10
83836;BME280;73859;40.830;43.828;2024-01-07T05:49:08;84637.50;;;-2.67;55.53
83836;BME280;73859;40.830;43.828;2024-01-07T05:51:40;84738.84;;;-1.78;55.71
83836;BME280;73859;40.830;43.828;2024-01-07T05:54:08;84748.47;;;-1.64;55.23
83836;BME280;73859;40.830;43.828;2024-01-07T05:56:39;84741.88;;;-1.52;55.16
83836;BME280;73859;40.830;43.828;2024-01-07T05:59:08;84742.88;;;-1.40;55.42
83836;BME280;73859;40.830;43.828;2024-01-07T06:01:35;84726.84;;;-1.28;55.20
83836;BME280;73859;40.830;43.828;2024-01-07T06:04:03;84727.13;;;-1.17;54.84
83836;BME280;73859;40.830;43.828;2024-01-07T06:06:31;84727.13;;;-1.08;55.21
83836;BME280;73859;40.830;43.828;2024-01-07T06:08:59;84720.50;;;-0.96;54.73
83836;BME280;73859;40.830;43.828;2024-01-07T06:11:26;84729.97;;;-0.88;54.73
83836;BME280;73859;40.830;43.828;2024-01-07T06:13:54;84726.69;;;-0.79;54.91
83836;BME280;73859;40.830;43.828;2024-01-07T06:16:21;84628.59;;;-1.37;54.37
83836;BME280;73859;40.830;43.828;2024-01-07T06:18:49;84665.06;;;-0.98;54.08
83836;BME280;73859;40.830;43.828;2024-01-07T06:21:16;84717.34;;;-0.46;54.64
83836;BME280;73859;40.830;43.828;2024-01-07T06:23:44;84720.84;;;-0.34;54.57
83836;BME280;73859;40.830;43.828;2024-01-07T06:26:12;84707.84;;;-0.27;54.43
83836;BME280;73859;40.830;43.828;2024-01-07T06:28:39;84661.91;;;-0.57;54.28
83836;BME280;73859;40.830;43.828;2024-01-07T06:31:06;84719.22;;;-0.14;54.23
83836;BME280;73859;40.830;43.828;2024-01-07T06:33:34;84713.88;;;-0.16;53.75
83836;BME280;73859;40.830;43.828;2024-01-07T06:36:02;84615.53;;;-0.75;53.93
83836;BME280;73859;40.830;43.828;2024-01-07T06:38:29;84715.09;;;0.07;53.70
83836;BME280;73859;40.830;43.828;2024-01-07T06:40:57;84714.06;;;0.14;53.51
83836;BME280;73859;40.830;43.828;2024-01-07T06:43:28;84709.47;;;0.27;53.81
83836;BME280;73859;40.830;43.828;2024-01-07T06:45:56;84718.91;;;0.35;53.10
83836;BME280;73859;40.830;43.828;2024-01-07T06:48:23;84697.84;;;0.35;53.21
83836;BME280;73859;40.830;43.828;2024-01-07T06:50:51;84705.41;;;0.53;53.37
83836;BME280;73859;40.830;43.828;2024-01-07T06:53:18;84715.34;;;0.66;53.06
83836;BME280;73859;40.830;43.828;2024-01-07T06:55:45;84713.09;;;0.68;52.69
83836;BME280;73859;40.830;43.828;2024-01-07T06:58:13;84719.59;;;0.69;52.83
83836;BME280;73859;40.830;43.828;2024-01-07T07:00:40;84722.84;;;0.69;52.74
83836;BME280;73859;40.830;43.828;2024-01-07T07:03:08;84716.59;;;0.70;53.14
83836;BME280;73859;40.830;43.828;2024-01-07T07:05:36;84676.06;;;0.43;52.85
83836;BME280;73859;40.830;43.828;2024-01-07T07:08:03;84645.72;;;0.30;53.29
83836;BME280;73859;40.830;43.828;2024-01-07T07:10:31;84721.25;;;0.95;52.63
83836;BME280;73859;40.830;43.828;2024-01-07T07:12:59;84710.38;;;0.95;52.86
83836;BME280;73859;40.830;43.828;2024-01-07T07:15:26;84716.00;;;0.99;52.65
83836;BME280;73859;40.830;43.828;2024-01-07T07:17:56;84702.13;;;1.00;52.64
83836;BME280;73859;40.830;43.828;2024-01-07T07:20:24;84703.91;;;1.09;52.41
83836;BME280;73859;40.830;43.828;2024-01-07T07:22:51;84596.72;;;0.44;52.44
83836;BME280;73859;40.830;43.828;2024-01-07T07:25:19;84698.94;;;1.29;52.50
83836;BME280;73859;40.830;43.828;2024-01-07T07:27:47;84701.09;;;1.45;52.74
83836;BME280;73859;40.830;43.828;2024-01-07T07:30:15;84700.91;;;1.48;52.61
83836;BME280;73859;40.830;43.828;2024-01-07T07:32:43;84698.03;;;1.56;52.16
83836;BME280;73859;40.830;43.828;2024-01-07T07:35:12;84700.13;;;1.72;52.09
83836;BME280;73859;40.830;43.828;2024-01-07T07:37:39;84695.72;;;1.87;52.05
83836;BME280;73859;40.830;43.828;2024-01-07T07:40:07;84690.28;;;1.94;52.24
83836;BME280;73859;40.830;43.828;2024-01-07T07:42:35;84692.75;;;2.03;51.47
83836;BME280;73859;40.830;43.828;2024-01-07T07:45:02;84689.81;;;2.10;51.37
83836;BME280;73859;40.830;43.828;2024-01-07T07:47:31;84620.22;;;1.60;52.48
83836;BME280;73859;40.830;43.828;2024-01-07T07:49:58;84694.38;;;2.21;51.64
83836;BME280;73859;40.830;43.828;2024-01-07T07:52:26;84687.88;;;2.20;51.40
83836;BME280;73859;40.830;43.828;2024-01-07T07:54:54;84557.31;;;1.22;51.08
83836;BME280;73859;40.830;43.828;2024-01-07T07:57:22;84670.22;;;2.02;50.78
83836;BME280;73859;40.830;43.828;2024-01-07T07:59:49;84590.88;;;1.35;51.68
83836;BME280;73859;40.830;43.828;2024-01-07T08:02:17;84679.53;;;2.05;51.38
83836;BME280;73859;40.830;43.828;2024-01-07T08:04:45;84599.75;;;1.40;51.12
83836;BME280;73859;40.830;43.828;2024-01-07T08:07:12;84637.88;;;1.78;51.00
83836;BME280;73859;40.830;43.828;2024-01-07T08:09:39;84692.53;;;2.21;50.71
83836;BME280;73859;40.830;43.828;2024-01-07T08:12:07;84684.97;;;2.12;50.83
83836;BME280;73859;40.830;43.828;2024-01-07T08:14:34;84692.63;;;1.97;50.47
83836;BME280;73859;40.830;43.828;2024-01-07T08:17:03;84685.09;;;1.88;50.91
83836;BME280;73859;40.830;43.828;2024-01-07T08:19:32;84684.03;;;1.95;51.63
83836;BME280;73859;40.830;43.828;2024-01-07T08:21:59;84658.88;;;1.88;51.05
83836;BME280;73859;40.830;43.828;2024-01-07T08:24:27;84689.81;;;2.25;50.53
83836;BME280;73859;40.830;43.828;2024-01-07T08:26:54;84673.84;;;2.30;50.51
83836;BME280;73859;40.830;43.828;2024-01-07T08:29:22;84677.00;;;2.39;50.56
83836;BME280;73859;40.830;43.828;2024-01-07T08:31:49;84688.34;;;2.53;49.54
83836;BME280;73859;40.830;43.828;2024-01-07T08:34:17;84685.00;;;2.47;49.97
83836;BME280;73859;40.830;43.828;2024-01-07T08:36:45;84688.44;;;2.44;50.38
83836;BME280;73859;40.830;43.828;2024-01-07T08:39:15;84668.31;;;2.31;49.70
83836;BME280;73859;40.830;43.828;2024-01-07T08:41:43;84674.72;;;2.41;50.13
83836;BME280;73859;40.830;43.828;2024-01-07T08:44:11;84678.75;;;2.48;50.17
83836;BME280;73859;40.830;43.828;2024-01-07T08:49:48;84653.84;;;2.43;49.92
83836;BME280;73859;40.830;43.828;2024-01-07T08:52:16;84647.56;;;2.59;49.86
83836;BME280;73859;40.830;43.828;2024-01-07T08:54:43;84661.03;;;2.79;50.15
83836;BME280;73859;40.830;43.828;2024-01-07T08:57:11;84610.91;;;2.41;48.77
83836;BME280;73859;40.830;43.828;2024-01-07T08:59:38;84644.44;;;2.69;49.18
83836;BME280;73859;40.830;43.828;2024-01-07T09:02:06;84642.38;;;2.73;49.76
83836;BME280;73859;40.830;43.828;2024-01-07T09:04:33;84649.59;;;2.75;49.73
83836;BME280;73859;40.830;43.828;2024-01-07T09:07:01;84630.91;;;2.83;49.92
83836;BME280;73859;40.830;43.828;2024-01-07T09:09:28;84629.34;;;2.91;49.55
83836;BME280;73859;40.830;43.828;2024-01-07T09:11:56;84624.75;;;2.95;49.21
83836;BME280;73859;40.830;43.828;2024-01-07T09:14:26;84590.84;;;2.75;49.49
83836;BME280;73859;40.830;43.828;2024-01-07T09:16:53;84600.25;;;2.83;50.50
83836;BME280;73859;40.830;43.828;2024-01-07T09:19:20;84597.34;;;2.96;50.08
83836;BME280;73859;40.830;43.828;2024-01-07T09:21:50;84569.19;;;2.90;49.31
83836;BME280;73859;40.830;43.828;2024-01-07T09:24:18;84587.31;;;2.92;49.28
83836;BME280;73859;40.830;43.828;2024-01-07T09:26:45;84612.47;;;3.00;48.90
83836;BME280;73859;40.830;43.828;2024-01-07T09:29:13;84606.03;;;3.04;49.35
83836;BME280;73859;40.830;43.828;2024-01-07T09:31:41;84542.69;;;2.62;49.10
83836;BME280;73859;40.830;43.828;2024-01-07T09:34:08;84541.06;;;2.65;48.99
83836;BME280;73859;40.830;43.828;2024-01-07T09:36:36;84543.88;;;2.67;49.00
83836;BME280;73859;40.830;43.828;2024-01-07T09:39:03;84600.53;;;3.11;49.25
83836;BME280;73859;40.830;43.828;2024-01-07T09:41:33;84581.22;;;3.10;49.23
83836;BME280;73859;40.830;43.828;2024-01-07T09:44:01;84581.53;;;3.18;49.25
83836;BME280;73859;40.830;43.828;2024-01-07T09:46:31;84573.75;;;3.58;48.84
83836;BME280;73859;40.830;43.828;2024-01-07T09:48:59;84572.47;;;5.12;46.36
83836;BME280;73859;40.830;43.828;2024-01-07T09:51:29;84528.94;;;5.84;45.17
83836;BME280;73859;40.830;43.828;2024-01-07T09:53:58;84563.31;;;6.89;43.57
83836;BME280;73859;40.830;43.828;2024-01-07T09:56:39;84477.28;;;6.96;42.89
83836;BME280;73859;40.830;43.828;2024-01-07T09:59:11;84542.06;;;8.11;41.58
83836;BME280;73859;40.830;43.828;2024-01-07T10:01:39;84556.78;;;8.46;41.61
83836;BME280;73859;40.830;43.828;2024-01-07T10:04:07;84457.88;;;7.95;40.33
83836;BME280;73859;40.830;43.828;2024-01-07T10:06:34;84531.38;;;8.80;40.40
83836;BME280;73859;40.830;43.828;2024-01-07T10:09:02;84541.66;;;9.04;39.94
83836;BME280;73859;40.830;43.828;2024-01-07T10:11:29;84487.38;;;8.72;40.71
83836;BME280;73859;40.830;43.828;2024-01-07T10:13:59;84528.47;;;9.08;39.95
83836;BME280;73859;40.830;43.828;2024-01-07T10:16:26;84537.44;;;9.63;40.11
83836;BME280;73859;40.830;43.828;2024-01-07T10:18:54;84532.47;;;9.83;39.55
83836;BME280;73859;40.830;43.828;2024-01-07T10:21:21;84500.72;;;9.70;39.07
83836;BME280;73859;40.830;43.828;2024-01-07T10:23:49;84520.63;;;10.07;38.99
83836;BME280;73859;40.830;43.828;2024-01-07T10:26:17;84480.56;;;10.13;38.71
83836;BME280;73859;40.830;43.828;2024-01-07T10:28:56;84531.13;;;10.86;38.66
83836;BME280;73859;40.830;43.828;2024-01-07T10:31:24;84523.88;;;10.97;38.17
83836;BME280;73859;40.830;43.828;2024-01-07T10:33:52;84522.16;;;11.26;37.50
83836;BME280;73859;40.830;43.828;2024-01-07T10:36:20;84535.50;;;11.30;37.11
83836;BME280;73859;40.830;43.828;2024-01-07T10:38:48;84520.09;;;11.24;37.17
83836;BME280;73859;40.830;43.828;2024-01-07T10:41:18;84498.59;;;11.16;37.12
83836;BME280;73859;40.830;43.828;2024-01-07T10:43:49;84517.34;;;11.56;36.45
83836;BME280;73859;40.830;43.828;2024-01-07T10:46:18;84421.69;;;10.77;36.83
83836;BME280;73859;40.830;43.828;2024-01-07T10:51:16;84544.28;;;11.01;36.71
83836;BME280;73859;40.830;43.828;2024-01-07T10:53:51;84527.75;;;10.77;37.72
83836;BME280;73859;40.830;43.828;2024-01-07T10:56:24;84530.97;;;10.39;37.56
83836;BME280;73859;40.830;43.828;2024-01-07T10:58:53;84525.59;;;10.05;38.37
83836;BME280;73859;40.830;43.828;2024-01-07T11:01:24;84515.53;;;10.01;36.95
83836;BME280;73859;40.830;43.828;2024-01-07T11:04:11;84534.13;;;10.31;37.79
83836;BME280;73859;40.830;43.828;2024-01-07T11:06:49;84530.66;;;10.10;36.24
83836;BME280;73859;40.830;43.828;2024-01-07T11:09:24;84526.00;;;9.58;38.15
83836;BME280;73859;40.830;43.828;2024-01-07T11:11:56;84519.31;;;9.68;38.45
83836;BME280;73859;40.830;43.828;2024-01-07T11:14:35;84518.44;;;10.29;36.83
83836;BME280;73859;40.830;43.828;2024-01-07T11:17:07;84517.50;;;10.98;36.22
83836;BME280;73859;40.830;43.828;2024-01-07T11:19:38;84463.03;;;11.17;35.56
83836;BME280;73859;40.830;43.828;2024-01-07T11:22:25;84505.69;;;11.76;33.84
83836;BME280;73859;40.830;43.828;2024-01-07T11:25:02;84499.72;;;12.22;34.83
83836;BME280;73859;40.830;43.828;2024-01-07T11:27:31;84454.53;;;11.63;35.32
83836;BME280;73859;40.830;43.828;2024-01-07T11:32:33;84455.41;;;10.59;35.88
83836;BME280;73859;40.830;43.828;2024-01-07T11:35:02;84516.44;;;10.36;36.79
83836;BME280;73859;40.830;43.828;2024-01-07T11:37:31;84515.59;;;9.45;37.38
83836;BME280;73859;40.830;43.828;2024-01-07T11:39:58;84499.63;;;8.66;38.35
83836;BME280;73859;40.830;43.828;2024-01-07T11:42:26;84497.94;;;7.90;39.02
83836;BME280;73859;40.830;43.828;2024-01-07T11:44:55;84514.63;;;7.84;39.42
83836;BME280;73859;40.830;43.828;2024-01-07T11:47:23;84510.53;;;8.29;39.13
83836;BME280;73859;40.830;43.828;2024-01-07T11:49:53;84460.88;;;8.29;38.45
83836;BME280;73859;40.830;43.828;2024-01-07T11:52:21;84504.09;;;8.66;37.90
83836;BME280;73859;40.830;43.828;2024-01-07T11:54:48;84499.53;;;7.99;39.36
83836;BME280;73859;40.830;43.828;2024-01-07T11:57:16;84402.88;;;8.17;38.42
83836;BME280;73859;40.830;43.828;2024-01-07T11:59:44;84507.22;;;9.02;39.11
83836;BME280;73859;40.830;43.828;2024-01-07T12:02:11;84502.72;;;8.83;38.65
83836;BME280;73859;40.830;43.828;2024-01-07T12:04:39;84402.28;;;7.81;38.84
83836;BME280;73859;40.830;43.828;2024-01-07T12:07:07;84488.75;;;8.30;39.33
83836;BME280;73859;40.830;43.828;2024-01-07T12:09:34;84491.84;;;8.72;39.46
83836;BME280;73859;40.830;43.828;2024-01-07T12:12:02;84474.28;;;10.41;38.28
83836;BME280;73859;40.830;43.828;2024-01-07T12:14:30;84471.16;;;11.34;37.44
83836;BME280;73859;40.830;43.828;2024-01-07T12:16:59;84464.91;;;11.97;36.54
83836;BME280;73859;40.830;43.828;2024-01-07T12:19:28;84468.84;;;12.53;35.37
83836;BME280;73859;40.830;43.828;2024-01-07T12:22:06;84433.97;;;12.41;33.73
83836;BME280;73859;40.830;43.828;2024-01-07T12:24:33;84476.69;;;13.17;34.86
83836;BME280;73859;40.830;43.828;2024-01-07T12:27:06;84474.88;;;13.84;34.51
83836;BME280;73859;40.830;43.828;2024-01-07T12:29:34;84439.97;;;13.64;33.37
83836;BME280;73859;40.830;43.828;2024-01-07T12:32:02;84477.69;;;14.08;33.07
83836;BME280;73859;40.830;43.828;2024-01-07T12:34:30;84476.97;;;14.00;33.65
83836;BME280;73859;40.830;43.828;2024-01-07T12:36:58;84475.81;;;14.24;33.50
83836;BME280;73859;40.830;43.828;2024-01-07T12:39:27;84481.25;;;14.49;33.00
83836;BME280;73859;40.830;43.828;2024-01-07T12:41:55;84396.84;;;13.68;32.58
83836;BME280;73859;40.830;43.828;2024-01-07T12:44:27;84479.41;;;13.98;32.97
83836;BME280;73859;40.830;43.828;2024-01-07T12:46:55;84469.19;;;13.49;33.71
83836;BME280;73859;40.830;43.828;2024-01-07T12:49:22;84462.56;;;13.33;33.89
83836;BME280;73859;40.830;43.828;2024-01-07T12:51:50;84475.13;;;12.65;34.14
83836;BME280;73859;40.830;43.828;2024-01-07T12:54:17;84481.91;;;11.85;35.44
83836;BME280;73859;40.830;43.828;2024-01-07T12:56:46;84390.28;;;11.07;35.01
83836;BME280;73859;40.830;43.828;2024-01-07T12:59:13;84475.84;;;11.69;35.04
83836;BME280;73859;40.830;43.828;2024-01-07T13:01:41;84473.91;;;12.38;34.91
83836;BME280;73859;40.830;43.828;2024-01-07T13:04:09;84460.13;;;12.22;34.36
83836;BME280;73859;40.830;43.828;2024-01-07T13:06:37;84473.31;;;10.83;35.86